KWRB/WRB METAR and TAF weather

Enter ICAO airport designator
Station Type Date Time Source
KWRB METAR 2021/07/30 07:56 UTC NOAA

KWRB 300756Z 00000KT 10SM CLR 25/25 A2996 RMK AO2A SLP144 T02490249


Station Type Date Time Source
KWRB Decoded METAR 2021/07/30 07:56 UTC NOAA

Warner Robins Air Force Base, GA, United States (KWRB) 32-38N 083-36W
Jul 30, 2021 - 03:56 AM EDT / 2021.07.30 0756 UTC
Wind: Calm:0
Visibility: 10 mile(s):0
Sky conditions: clear
Temperature: 76.8 F (24.9 C)
Dew Point: 76.8 F (24.9 C)
Relative Humidity: 100%
Pressure (altimeter): 29.96 in. Hg (1014 hPa)
ob: KWRB 300756Z 00000KT 10SM CLR 25/25 A2996 RMK AO2A SLP144 T02490249
cycle: 8

Station Type Date Time Source
KWRB TAF 2021/07/30 00:49 UTC NOAA

TAF KWRB 300000Z 3000/3106 VRB06KT 9999 FEW040 QNH2995INS TX38/3021Z TN24/3010Z

Example: see airport list